Aviation Digital Data Service (ADDS)

Output produced by METARs form (1711 UTC 16 June 2019)
found at http://www.aviationweather.gov/metar/data/
 
LOWG 161650Z VRB04KT 9999 FEW040 FEW045CB SCT090 BKN140 21/15 Q1017 BECMG NSW
TAF LOWG 161115Z 1612/1712 12005KT 9999 FEW050CB SCT060 TX28/1612Z TN16/1703Z 
     TEMPO 1612/1618 VRB15G25KT 7000 TSRA SCT035CB BKN050 
     BECMG 1617/1619 34004KT FEW050 SCT100 BKN270 
     TEMPO 1710/1712 05007KT FEW050TCU BKN070
       
LOWI 161650Z VRB02KT 9999 BKN050 18/12 Q1022 NOSIG
TAF LOWI 161115Z 1612/1712 09007KT 9999 SCT060 SCT080 TX26/1712Z TN14/1704Z 
     TEMPO 1612/1619 30010G20KT -SHRA FEW050TCU BKN070 
     BECMG 1618/1620 27003KT 
     BECMG 1709/1711 09007KT
       
LOWK 161650Z 02016KT 360V070 9999 TSRA FEW040 SCT060 FEW060CB BKN080 22/14 Q1017 BECMG NSW
TAF AMD LOWK 161548Z 1615/1712 VRB02KT 9999 FEW060 FEW060CB TX27/1616Z
TN16/1704Z 
     TEMPO 1615/1619 VRB10KT TS 
     PROB30 
     TEMPO 1615/1618 02020G30KT 6000 TSRA 
     BECMG 1619/1621 FEW050 SCT100 BKN300 
     TEMPO 1710/1712 FEW060 FEW060TCU
       
LOWL 161650Z 26010KT 9999 FEW036 BKN070 22/13 Q1020 NOSIG
TAF LOWL 161115Z 1612/1712 25012KT 9999 SCT020 BKN050 TX24/1712Z TN15/1703Z 
     BECMG 1614/1616 30006KT 
     PROB30 
     TEMPO 1614/1616 3000 TSRA BKN025 FEW050CB 
     BECMG 1622/1624 VRB02KT CAVOK 
     BECMG 1706/1709 08010KT 9999 FEW045
       
LOWS 161650Z 13008KT 9999 FEW042 BKN055 18/13 Q1022 NOSIG
TAF AMD LOWS 161448Z 1614/1712 15005KT 9999 FEW030 BKN050 TX24/1712Z TN14/1704Z 
     TEMPO 1614/1619 31006KT -SHRA SCT030TCU BKN040 
     BECMG 1707/1709 03006KT FEW050 SCT100
       
LOWW 161650Z 31015KT 9999 FEW035 BKN300 24/15 Q1018 NOSIG
TAF LOWW 161415Z 1615/1721 30017G27KT 9999 FEW040 TX26/1715Z TN18/1703Z 
     BECMG 1618/1620 32013KT 
     BECMG 1716/1718 01006KT
       
LOAV 161600Z 30010KT 30KM FEW040CU SCT100AC BKN300CI 23/13
TAF LOAV 161125Z 1612/1621 30014KT 9999 FEW050 
     TEMPO 1612/1620 32015G30KT FEW050 FEW050CB
       
LOAN 161600Z 33010G20KT 30KM FEW040CU SCT100AC BKN300CI
TAF LOAN 161125Z 1612/1621 31014KT 9999 FEW050 
     TEMPO 1612/1620 34015G30KT FEW050 FEW050CB
       
LOXZ 161650Z 21004KT 30KM FEW015ST SCT040CB BKN110AC 18/14 Q1019